Time;durP1;ratioP1;P1;durP2;ratioP2;P2;SDS_P1;SDS_P2;PMS_P1;PMS_P2;Temp;Humidity;BMP_temperature;BMP_pressure;BME280_temperature;BME280_humidity;BME280_pressure;Samples;Min_cycle;Max_cycle;Signal;HPM_P1;HPM_P2
2023/09/15 00:02:08;;;;;;;20.63;15.60;;;;;;;18.42;100.00;94940.59;4980020;28;20030;-86
2023/09/15 00:04:33;;;;;;;17.67;16.08;;;;;;;18.31;100.00;94949.16;4979751;28;20143;-86
2023/09/15 00:06:59;;;;;;;17.58;15.98;;;;;;;18.19;100.00;94961.41;4980782;28;20026;-84
2023/09/15 00:09:24;;;;;;;17.85;16.00;;;;;;;18.13;100.00;94968.31;4969849;28;20035;-87
2023/09/15 00:11:50;;;;;;;18.75;16.98;;;;;;;18.19;100.00;94969.25;4980945;28;20028;-85
2023/09/15 00:14:16;;;;;;;17.55;16.02;;;;;;;18.29;100.00;94951.22;4976059;28;20057;-85
2023/09/15 00:16:43;;;;;;;19.83;15.73;;;;;;;18.20;100.00;94958.56;4980715;28;20479;-83
2023/09/15 00:19:13;;;;;;;17.20;15.35;;;;;;;18.00;100.00;94955.34;4977387;28;20045;-91
2023/09/15 00:21:40;;;;;;;17.23;15.63;;;;;;;17.86;100.00;94962.50;4983163;28;20145;-89
2023/09/15 00:24:06;;;;;;;17.67;15.98;;;;;;;17.81;100.00;94979.91;4977083;28;20042;-91
2023/09/15 00:26:34;;;;;;;26.77;20.73;;;;;;;17.83;100.00;94983.91;4983581;28;20030;-87
2023/09/15 00:29:01;;;;;;;19.77;16.40;;;;;;;17.99;100.00;94969.44;4980074;28;20038;-87
2023/09/15 00:31:27;;;;;;;18.25;16.35;;;;;;;17.89;100.00;94975.19;4982870;28;20110;-89
2023/09/15 00:33:52;;;;;;;17.75;15.98;;;;;;;17.73;100.00;94972.28;4977159;28;20518;-89
2023/09/15 00:36:18;;;;;;;18.45;16.65;;;;;;;17.76;100.00;94980.53;4983107;28;20022;-91
2023/09/15 00:38:43;;;;;;;18.35;16.50;;;;;;;17.76;100.00;94979.72;4975225;28;20125;-87
2023/09/15 00:41:08;;;;;;;18.67;16.75;;;;;;;17.80;100.00;94979.09;4982238;28;20034;-89
2023/09/15 00:43:34;;;;;;;18.23;15.40;;;;;;;17.63;100.00;94982.44;4979270;28;20030;-92
2023/09/15 00:46:00;;;;;;;19.40;16.52;;;;;;;17.46;100.00;94992.63;4983478;28;20693;-91
2023/09/15 00:48:26;;;;;;;18.17;16.50;;;;;;;17.45;100.00;94998.88;4966361;28;20034;-90
2023/09/15 00:50:51;;;;;;;17.55;16.10;;;;;;;17.44;100.00;94991.22;4983717;28;20500;-90
2023/09/15 00:53:19;;;;;;;17.70;16.05;;;;;;;17.40;100.00;95007.34;4984216;28;20229;-96
2023/09/15 00:55:46;;;;;;;17.52;15.90;;;;;;;17.39;100.00;95003.16;4984404;28;20407;-95
2023/09/15 00:58:12;;;;;;;18.48;16.75;;;;;;;17.39;100.00;95011.00;4985048;28;20026;-94
2023/09/15 01:00:44;;;;;;;17.50;15.70;;;;;;;17.43;100.00;95013.19;4985521;28;20061;-96
2023/09/15 01:03:11;;;;;;;17.35;15.88;;;;;;;17.47;100.00;95016.97;4990618;28;20033;-95
2023/09/15 01:05:38;;;;;;;17.02;15.55;;;;;;;17.54;100.00;95007.25;4990785;28;20381;-91
2023/09/15 01:08:04;;;;;;;17.42;15.73;;;;;;;17.63;100.00;94998.97;4984093;28;20022;-93
2023/09/15 01:10:29;;;;;;;18.63;16.75;;;;;;;17.53;100.00;95010.91;4984061;28;20109;-95
2023/09/15 01:12:56;;;;;;;18.20;16.40;;;;;;;17.53;100.00;95016.16;4984216;28;20023;-91
2023/09/15 01:15:28;;;;;;;22.30;16.83;;;;;;;17.62;100.00;95009.69;4983607;28;20054;-94
2023/09/15 01:18:10;;;;;;;19.65;17.67;;;;;;;17.57;100.00;95009.50;4983705;28;20051;-90
2023/09/15 01:20:54;;;;;;;17.45;15.68;;;;;;;17.37;100.00;95020.06;4983555;28;20034;-92
2023/09/15 01:24:01;;;;;;;17.70;15.93;;;;;;;17.28;100.00;95032.59;4983600;28;20106;-92
2023/09/15 01:26:45;;;;;;;19.40;16.02;;;;;;;17.42;100.00;95033.34;4922414;28;20054;-88
2023/09/15 01:29:37;;;;;;;16.85;15.20;;;;;;;17.33;100.00;95035.41;4982106;28;20026;-90
2023/09/15 01:32:05;;;;;;;18.02;16.33;;;;;;;17.32;100.00;95028.56;4969119;28;20894;-87
2023/09/15 01:34:31;;;;;;;18.10;16.35;;;;;;;17.36;100.00;95024.53;4980607;28;20034;-86
2023/09/15 01:36:56;;;;;;;18.85;16.55;;;;;;;17.45;100.00;95032.91;4979842;28;20022;-85
2023/09/15 01:39:21;;;;;;;19.55;17.85;;;;;;;17.18;100.00;95034.06;4979326;28;20493;-84
2023/09/15 01:41:47;;;;;;;20.85;17.73;;;;;;;17.30;100.00;95041.06;4993472;28;20619;-86
2023/09/15 01:44:12;;;;;;;20.85;18.73;;;;;;;17.08;100.00;95050.22;4979580;28;20108;-86
2023/09/15 01:46:38;;;;;;;20.98;17.98;;;;;;;17.29;100.00;95049.13;4979715;28;20030;-87
2023/09/15 01:49:03;;;;;;;19.67;17.20;;;;;;;17.42;100.00;95032.53;4979417;28;20045;-85
2023/09/15 01:51:30;;;;;;;23.50;17.55;;;;;;;17.44;100.00;95031.31;4980616;28;20038;-86
2023/09/15 01:53:56;;;;;;;21.52;18.10;;;;;;;17.33;100.00;95026.75;4962132;28;20381;-84
2023/09/15 01:56:24;;;;;;;23.67;18.02;;;;;;;17.26;100.00;95042.50;4962355;28;20045;-84
2023/09/15 01:58:49;;;;;;;19.83;17.67;;;;;;;17.21;100.00;95046.75;4979616;28;20030;-86
2023/09/15 02:01:15;;;;;;;22.33;18.35;;;;;;;17.11;100.00;95049.81;4980053;28;20073;-87
2023/09/15 02:03:40;;;;;;;19.55;17.65;;;;;;;17.22;100.00;95054.38;4979439;28;20585;-85
2023/09/15 02:06:05;;;;;;;21.00;18.15;;;;;;;17.06;100.00;95052.25;4979778;28;20025;-87
2023/09/15 02:08:32;;;;;;;18.67;16.98;;;;;;;16.88;100.00;95059.16;4982164;28;20029;-89
2023/09/15 02:10:57;;;;;;;19.42;17.45;;;;;;;16.78;100.00;95072.69;4984579;28;20613;-89
2023/09/15 02:13:23;;;;;;;19.80;17.95;;;;;;;16.67;100.00;95081.16;4985171;28;20157;-90
2023/09/15 02:15:52;;;;;;;19.80;17.85;;;;;;;16.66;100.00;95082.97;4985186;28;20096;-91
2023/09/15 02:18:18;;;;;;;21.52;19.27;;;;;;;16.48;100.00;95097.66;4985376;28;20088;-89
2023/09/15 02:20:44;;;;;;;19.55;17.48;;;;;;;16.56;100.00;95100.91;4984405;28;20026;-87
2023/09/15 02:23:09;;;;;;;20.15;18.20;;;;;;;16.64;100.00;95107.72;4983967;28;20085;-87
2023/09/15 02:25:34;;;;;;;18.85;17.13;;;;;;;16.67;100.00;95109.91;4976523;28;20114;-93
2023/09/15 02:28:02;;;;;;;21.33;19.35;;;;;;;16.58;100.00;95114.56;4981942;28;20396;-88
2023/09/15 02:30:27;;;;;;;20.40;18.25;;;;;;;16.57;100.00;95120.78;4986457;28;20034;-89
2023/09/15 02:32:53;;;;;;;20.73;18.58;;;;;;;16.59;100.00;95124.03;4985695;28;20408;-93
2023/09/15 02:35:19;;;;;;;21.52;18.83;;;;;;;16.60;100.00;95111.78;4968314;28;20161;-96
2023/09/15 02:37:44;;;;;;;20.95;18.70;;;;;;;16.53;100.00;95116.16;4987879;28;20034;-93
2023/09/15 02:40:13;;;;;;;21.02;18.92;;;;;;;16.45;100.00;95116.34;4986269;28;20040;-91
2023/09/15 02:42:39;;;;;;;22.52;18.25;;;;;;;16.45;100.00;95118.97;4985566;28;20480;-89
2023/09/15 02:45:05;;;;;;;20.40;18.45;;;;;;;16.42;100.00;95117.56;4986706;28;20040;-96
2023/09/15 02:47:30;;;;;;;20.80;18.85;;;;;;;16.34;100.00;95123.78;4972576;28;20041;-93
2023/09/15 02:49:56;;;;;;;20.60;18.65;;;;;;;16.30;100.00;95140.09;4986123;28;20031;-92
2023/09/15 02:52:21;;;;;;;20.58;18.80;;;;;;;16.25;100.00;95142.50;4985801;28;20065;-95
2023/09/15 02:54:49;;;;;;;21.92;19.83;;;;;;;16.25;100.00;95140.69;4986685;28;20026;-95
2023/09/15 02:57:15;;;;;;;21.70;19.65;;;;;;;16.34;100.00;95141.31;4985803;28;20539;-94
2023/09/15 02:59:40;;;;;;;20.83;18.67;;;;;;;16.34;100.00;95129.03;4986205;28;20113;-96
2023/09/15 03:02:12;;;;;;;22.42;20.05;;;;;;;16.24;100.00;95141.72;4987943;28;20035;-92
2023/09/15 03:04:37;;;;;;;21.58;19.27;;;;;;;16.19;100.00;95144.13;4986843;28;20121;-96
2023/09/15 03:07:03;;;;;;;21.15;18.98;;;;;;;16.10;100.00;95147.94;4987604;28;20453;-94
2023/09/15 03:09:31;;;;;;;21.95;19.73;;;;;;;16.09;100.00;95150.72;4985014;28;20032;-94
2023/09/15 03:11:56;;;;;;;22.50;20.40;;;;;;;16.03;100.00;95149.72;4986166;28;20034;-92
2023/09/15 03:14:22;;;;;;;21.85;19.70;;;;;;;16.00;100.00;95163.19;4985619;28;20074;-96
2023/09/15 03:16:47;;;;;;;22.58;20.55;;;;;;;15.96;100.00;95175.03;4979224;28;20029;-96
2023/09/15 03:19:13;;;;;;;22.75;19.65;;;;;;;15.87;100.00;95178.03;5022478;28;20092;-92
2023/09/15 03:21:38;;;;;;;21.58;19.40;;;;;;;15.83;100.00;95190.66;4986388;28;20033;-95
2023/09/15 03:24:05;;;;;;;21.88;19.75;;;;;;;15.99;100.00;95192.91;4996051;28;20037;-90
2023/09/15 03:26:30;;;;;;;21.90;20.10;;;;;;;15.97;100.00;95189.72;4984930;28;20037;-85
2023/09/15 03:28:55;;;;;;;25.02;20.17;;;;;;;15.95;100.00;95186.50;4982750;28;20034;-86
2023/09/15 03:31:21;;;;;;;26.05;22.05;;;;;;;15.85;100.00;95195.72;4982964;28;20030;-86
2023/09/15 03:33:46;;;;;;;24.25;21.92;;;;;;;15.83;100.00;95209.75;4984519;28;20130;-93
2023/09/15 03:36:12;;;;;;;23.83;21.40;;;;;;;15.82;100.00;95212.59;4984908;28;20030;-91
2023/09/15 03:38:37;;;;;;;23.42;20.92;;;;;;;15.84;100.00;95207.97;4984630;28;20412;-92
2023/09/15 03:41:04;;;;;;;23.70;21.42;;;;;;;15.92;100.00;95213.03;4984695;28;20787;-90
2023/09/15 03:43:30;;;;;;;22.10;20.00;;;;;;;15.92;100.00;95209.59;4984885;28;20033;-91
2023/09/15 03:45:56;;;;;;;50.63;23.23;;;;;;;15.95;100.00;95212.63;4984682;28;20031;-90
2023/09/15 03:48:21;;;;;;;24.58;21.60;;;;;;;15.92;100.00;95222.66;4984417;28;20034;-93
2023/09/15 03:50:47;;;;;;;23.95;21.40;;;;;;;16.00;100.00;95225.91;4985958;28;20396;-95
2023/09/15 03:53:14;;;;;;;22.48;20.48;;;;;;;16.01;100.00;95222.28;4985155;28;20050;-91
2023/09/15 03:55:39;;;;;;;24.48;21.98;;;;;;;16.08;100.00;95217.91;4984953;28;20640;-92
2023/09/15 03:58:05;;;;;;;23.80;21.38;;;;;;;16.23;100.00;95215.09;4984759;28;20030;-90
2023/09/15 04:00:30;;;;;;;24.17;21.42;;;;;;;16.17;100.00;95219.31;4984289;28;20646;-90
2023/09/15 04:02:56;;;;;;;23.42;20.98;;;;;;;15.95;100.00;95223.09;4985036;28;20442;-95
2023/09/15 04:05:21;;;;;;;25.02;22.52;;;;;;;15.80;100.00;95219.78;4984772;28;20404;-94
2023/09/15 04:07:47;;;;;;;22.33;19.80;;;;;;;15.91;100.00;95211.41;4984518;28;20026;-91
2023/09/15 04:10:13;;;;;;;23.58;21.05;;;;;;;15.95;100.00;95203.97;4989263;28;20081;-94
2023/09/15 04:12:38;;;;;;;21.73;19.52;;;;;;;15.99;100.00;95200.75;4986578;28;20022;-90
2023/09/15 04:15:04;;;;;;;24.83;22.25;;;;;;;15.80;100.00;95225.03;4984184;28;20051;-86
2023/09/15 04:17:31;;;;;;;25.65;23.17;;;;;;;15.79;100.00;95226.03;4985530;28;20034;-96
2023/09/15 04:19:57;;;;;;;27.00;24.10;;;;;;;15.85;100.00;95227.06;4982051;28;20038;-93
2023/09/15 04:22:23;;;;;;;24.70;22.33;;;;;;;15.89;100.00;95223.06;4981666;28;20083;-96
2023/09/15 04:24:48;;;;;;;24.58;22.13;;;;;;;15.96;100.00;95222.06;4992629;28;20034;-96
2023/09/15 04:27:14;;;;;;;22.77;20.40;;;;;;;16.06;100.00;95208.63;4984987;28;20026;-94
2023/09/15 04:29:52;;;;;;;24.58;21.98;;;;;;;15.97;100.00;95221.06;4969706;28;20415;-96
2023/09/15 04:32:18;;;;;;;29.15;22.30;;;;;;;15.92;100.00;95228.69;4986809;28;20045;-95
2023/09/15 04:34:44;;;;;;;66.40;24.92;;;;;;;15.88;100.00;95237.94;4994046;28;20492;-96
2023/09/15 04:37:09;;;;;;;24.70;22.05;;;;;;;15.86;100.00;95233.91;4989016;28;20544;-96
2023/09/15 04:39:35;;;;;;;24.30;21.80;;;;;;;16.00;100.00;95240.75;4986612;28;20031;-95
2023/09/15 04:42:00;;;;;;;23.88;21.48;;;;;;;16.01;100.00;95237.97;4988890;28;20018;-96
2023/09/15 04:44:26;;;;;;;22.08;20.00;;;;;;;16.04;100.00;95240.19;4986372;28;20532;-96
2023/09/15 04:46:51;;;;;;;24.80;22.20;;;;;;;16.03;100.00;95237.75;4985385;28;20101;-95
2023/09/15 04:49:16;;;;;;;23.60;21.20;;;;;;;15.96;100.00;95250.78;4988570;28;20042;-95
2023/09/15 04:51:42;;;;;;;24.15;21.60;;;;;;;16.06;100.00;95253.84;4982381;28;20421;-96
2023/09/15 04:54:07;;;;;;;25.85;21.85;;;;;;;16.15;100.00;95254.50;4981177;28;20118;-96
2023/09/15 04:56:33;;;;;;;22.80;20.42;;;;;;;16.33;100.00;95245.09;4980388;28;20030;-94
2023/09/15 04:58:58;;;;;;;25.25;20.98;;;;;;;16.40;100.00;95228.59;4980477;28;20037;-94
2023/09/15 05:01:23;;;;;;;23.52;21.10;;;;;;;16.25;100.00;95242.63;4982188;28;20099;-94
2023/09/15 05:03:49;;;;;;;24.05;21.58;;;;;;;16.32;100.00;95243.47;4987437;28;20031;-95
2023/09/15 05:06:14;;;;;;;24.48;22.17;;;;;;;16.41;100.00;95236.22;4985236;28;20034;-95
2023/09/15 05:08:40;;;;;;;21.50;19.30;;;;;;;16.61;100.00;95221.41;4982805;28;20037;-95
2023/09/15 05:11:05;;;;;;;22.73;20.27;;;;;;;16.73;100.00;95211.13;4985612;28;20069;-95
2023/09/15 05:13:31;;;;;;;46.35;21.23;;;;;;;16.83;100.00;95199.25;4982341;28;20028;-96
2023/09/15 05:15:56;;;;;;;22.65;19.92;;;;;;;17.08;100.00;95194.16;4981225;28;20026;-96
2023/09/15 05:18:21;;;;;;;20.70;18.55;;;;;;;17.79;100.00;95157.47;4980752;28;20030;-96
2023/09/15 05:20:47;;;;;;;19.52;16.55;;;;;;;18.64;100.00;95108.88;4980489;28;20117;-96
2023/09/15 05:23:12;;;;;;;18.40;15.25;;;;;;;18.99;100.00;95091.56;4980801;28;20377;-93
2023/09/15 05:25:37;;;;;;;17.27;15.77;;;;;;;19.23;100.00;95090.66;4981103;28;20507;-94
2023/09/15 05:28:03;;;;;;;15.75;14.13;;;;;;;20.40;100.00;95078.72;4982915;28;20030;-94
2023/09/15 05:30:31;;;;;;;15.40;12.85;;;;;;;20.81;100.00;95070.72;4981225;28;20093;-92
2023/09/15 05:32:56;;;;;;;14.40;13.00;;;;;;;21.15;100.00;95066.47;4963541;28;20096;-93
2023/09/15 05:35:22;;;;;;;14.88;12.68;;;;;;;21.60;100.00;95065.72;4979770;28;20218;-93
2023/09/15 05:37:47;;;;;;;18.60;13.27;;;;;;;21.67;100.00;95061.91;4992256;28;20112;-93
2023/09/15 05:40:13;;;;;;;13.90;12.55;;;;;;;21.58;100.00;95067.81;4981723;28;20106;-93
2023/09/15 05:42:38;;;;;;;15.55;13.40;;;;;;;21.68;100.00;95066.13;4980573;28;20449;-93
2023/09/15 05:45:05;;;;;;;14.98;13.57;;;;;;;22.30;100.00;95060.88;4986013;28;20060;-93
2023/09/15 05:47:31;;;;;;;19.60;13.48;;;;;;;22.96;100.00;95062.66;4977871;28;20037;-95
2023/09/15 05:49:56;;;;;;;14.23;13.02;;;;;;;23.04;100.00;95059.59;4993661;28;20034;-93
2023/09/15 05:52:21;;;;;;;14.35;12.80;;;;;;;23.02;100.00;95066.97;4983929;28;20038;-93
2023/09/15 05:54:47;;;;;;;20.63;12.45;;;;;;;22.83;100.00;95065.66;4983320;28;20049;-92
2023/09/15 05:57:12;;;;;;;14.57;12.57;;;;;;;22.69;100.00;95069.69;4983024;28;20405;-92
2023/09/15 05:59:38;;;;;;;13.73;12.40;;;;;;;22.89;100.00;95068.09;4987276;28;20035;-93
2023/09/15 06:02:03;;;;;;;16.17;12.82;;;;;;;23.45;100.00;95059.06;4987870;28;20449;-94
2023/09/15 06:04:29;;;;;;;12.88;11.57;;;;;;;23.55;100.00;95064.47;4987506;28;20117;-94
2023/09/15 06:06:54;;;;;;;13.70;12.48;;;;;;;25.06;100.00;95054.31;4987837;28;20027;-92
2023/09/15 06:09:19;;;;;;;12.48;11.25;;;;;;;24.70;100.00;95070.22;4987947;28;20023;-95
2023/09/15 06:11:45;;;;;;;14.75;13.43;;;;;;;26.57;88.35;95071.66;4980081;28;20507;-94
2023/09/15 06:14:10;;;;;;;13.45;12.02;;;;;;;27.92;81.45;95074.16;4983191;28;20576;-94
2023/09/15 06:16:36;;;;;;;12.32;11.20;;;;;;;27.74;80.28;95068.41;4984346;28;20027;-94
2023/09/15 06:19:02;;;;;;;17.08;13.02;;;;;;;29.26;72.06;95072.53;4982412;28;20034;-94
2023/09/15 06:21:28;;;;;;;16.45;11.18;;;;;;;29.69;69.57;95060.78;4985719;28;20388;-94
2023/09/15 06:23:54;;;;;;;10.82;9.93;;;;;;;29.78;68.29;95067.06;4986775;28;20022;-91
2023/09/15 06:26:19;;;;;;;10.57;9.52;;;;;;;30.24;64.45;95067.25;4984496;28;20117;-95
2023/09/15 06:28:45;;;;;;;9.98;9.02;;;;;;;30.21;63.40;95061.69;4980351;28;20037;-88
2023/09/15 06:31:10;;;;;;;12.50;8.65;;;;;;;30.92;61.71;95068.56;4981727;28;20030;-90
2023/09/15 06:33:36;;;;;;;8.98;8.15;;;;;;;30.55;63.30;95067.56;4985178;28;20034;-88
2023/09/15 06:36:01;;;;;;;9.02;8.20;;;;;;;30.74;61.18;95060.28;4980903;28;20023;-87
2023/09/15 06:38:27;;;;;;;10.43;9.05;;;;;;;31.52;58.15;95069.31;4981777;28;20038;-89
2023/09/15 06:40:53;;;;;;;10.30;8.57;;;;;;;31.19;58.94;95072.06;4980938;28;20507;-87
2023/09/15 06:43:19;;;;;;;9.77;8.85;;;;;;;31.59;57.43;95073.19;4983601;28;20034;-88
2023/09/15 06:45:44;;;;;;;8.32;7.63;;;;;;;32.01;54.45;95071.22;4981823;28;20774;-89
2023/09/15 06:48:09;;;;;;;8.95;8.25;;;;;;;33.57;50.06;95069.19;4985343;28;20034;-89
2023/09/15 06:50:35;;;;;;;9.10;8.25;;;;;;;33.17;50.47;95079.19;4998240;28;20037;-88
2023/09/15 06:53:00;;;;;;;8.55;7.78;;;;;;;33.24;49.79;95071.44;4984116;28;20932;-86
2023/09/15 06:55:26;;;;;;;8.25;7.43;;;;;;;34.23;47.90;95070.78;4983594;28;20038;-87
2023/09/15 06:57:51;;;;;;;8.93;8.00;;;;;;;33.40;49.50;95065.34;4971735;28;20574;-87
2023/09/15 07:00:17;;;;;;;7.93;7.22;;;;;;;34.02;47.97;95065.19;4992131;28;20031;-88
2023/09/15 07:02:42;;;;;;;9.70;8.40;;;;;;;34.34;46.16;95062.06;4984043;28;20038;-86
2023/09/15 07:05:08;;;;;;;8.30;7.40;;;;;;;34.93;45.07;95068.44;4983529;28;20031;-89
2023/09/15 07:07:33;;;;;;;7.60;6.90;;;;;;;34.74;44.96;95073.41;4968443;28;20030;-88
2023/09/15 07:09:58;;;;;;;10.73;8.00;;;;;;;34.82;43.91;95075.31;4977021;28;20061;-85
2023/09/15 07:12:24;;;;;;;7.45;6.70;;;;;;;34.83;44.74;95066.13;4976680;28;20034;-88
2023/09/15 07:14:50;;;;;;;10.83;6.97;;;;;;;35.25;42.84;95061.75;4983523;28;20064;-90
2023/09/15 07:17:16;;;;;;;12.18;6.75;;;;;;;34.83;44.72;95065.34;4983946;28;20092;-86
2023/09/15 07:19:44;;;;;;;8.70;7.60;;;;;;;35.10;43.19;95061.47;4982004;28;20753;-89
2023/09/15 07:22:10;;;;;;;11.27;6.90;;;;;;;35.21;43.81;95060.00;4968289;28;20036;-89
2023/09/15 07:24:35;;;;;;;8.80;7.90;;;;;;;35.55;42.26;95070.63;4982498;28;20030;-84
2023/09/15 07:27:01;;;;;;;8.02;7.22;;;;;;;35.42;43.14;95061.63;4980618;28;20671;-89
2023/09/15 07:29:28;;;;;;;11.77;7.47;;;;;;;35.03;43.11;95056.56;4983941;28;20041;-88
2023/09/15 07:31:57;;;;;;;11.63;7.90;;;;;;;35.03;43.42;95053.06;4996602;28;20044;-88
2023/09/15 07:34:23;;;;;;;8.57;7.82;;;;;;;34.90;44.28;95055.63;4984166;28;20042;-83
2023/09/15 07:36:50;;;;;;;9.55;7.82;;;;;;;34.59;45.09;95059.63;4983810;28;20463;-87
2023/09/15 07:39:16;;;;;;;12.95;8.88;;;;;;;30.11;58.08;95057.28;4984012;28;20031;-91
2023/09/15 07:41:43;;;;;;;10.40;9.35;;;;;;;28.72;68.79;95060.25;4983397;28;20033;-88
2023/09/15 07:44:08;;;;;;;9.70;8.70;;;;;;;28.25;72.56;95058.25;4984596;28;20031;-84
2023/09/15 07:46:34;;;;;;;11.48;9.48;;;;;;;28.17;73.90;95063.38;4973097;28;20118;-89
2023/09/15 07:48:59;;;;;;;9.68;8.82;;;;;;;28.30;74.42;95060.06;4980935;28;20029;-89
2023/09/15 07:51:27;;;;;;;10.93;9.55;;;;;;;28.37;72.99;95054.41;4984394;28;20037;-89
2023/09/15 07:53:56;;;;;;;13.10;8.35;;;;;;;28.34;72.64;95053.13;4997010;28;20113;-84
2023/09/15 07:56:21;;;;;;;11.02;9.93;;;;;;;27.95;75.98;95050.44;4984554;28;20037;-90
2023/09/15 07:58:47;;;;;;;11.73;10.52;;;;;;;27.42;75.26;95053.91;4984258;28;20018;-90
2023/09/15 08:01:13;;;;;;;11.88;10.05;;;;;;;28.48;72.54;95054.03;4983456;28;20046;-91
2023/09/15 08:03:40;;;;;;;12.85;8.98;;;;;;;28.60;71.92;95049.16;4983879;28;20109;-85
2023/09/15 08:06:07;;;;;;;10.90;9.55;;;;;;;28.02;75.62;95050.13;4983707;28;20522;-88
2023/09/15 08:08:32;;;;;;;12.63;8.80;;;;;;;28.57;73.31;95049.72;4984059;28;20081;-88
2023/09/15 08:10:57;;;;;;;9.93;9.02;;;;;;;28.24;70.84;95039.88;4983508;28;20022;-92
2023/09/15 08:13:23;;;;;;;13.93;9.18;;;;;;;28.08;72.58;95033.06;4985319;28;20568;-90
2023/09/15 08:15:51;;;;;;;10.32;8.98;;;;;;;28.93;71.67;95034.16;4983805;28;20050;-91
2023/09/15 08:18:18;;;;;;;9.60;8.60;;;;;;;28.84;67.66;95032.41;4983280;28;20172;-94
2023/09/15 08:20:43;;;;;;;9.50;8.57;;;;;;;28.00;70.60;95033.63;4982636;28;20037;-94
2023/09/15 08:23:09;;;;;;;12.35;8.95;;;;;;;28.68;72.17;95035.22;4987810;28;20030;-93
2023/09/15 08:25:34;;;;;;;11.73;8.80;;;;;;;28.56;69.44;95031.31;4986079;28;20034;-92
2023/09/15 08:28:02;;;;;;;9.45;8.63;;;;;;;27.98;70.86;95025.09;4986090;28;20058;-90
2023/09/15 08:30:28;;;;;;;16.67;9.35;;;;;;;28.51;70.38;95024.16;4986837;28;20088;-95
2023/09/15 08:32:53;;;;;;;16.00;9.85;;;;;;;28.53;69.81;95015.88;4992568;28;20034;-91
2023/09/15 08:35:19;;;;;;;10.23;9.10;;;;;;;28.86;67.14;95022.25;4985983;28;20062;-95
2023/09/15 08:37:44;;;;;;;10.98;8.93;;;;;;;28.97;68.43;95019.19;4993206;28;20027;-92
2023/09/15 08:40:10;;;;;;;9.55;8.65;;;;;;;29.07;67.15;95019.06;4992844;28;20022;-94
2023/09/15 08:42:36;;;;;;;10.02;8.43;;;;;;;29.46;66.29;95008.22;4985888;28;20088;-94
2023/09/15 08:45:04;;;;;;;9.15;8.27;;;;;;;28.92;65.31;95010.44;4993686;28;20451;-92
2023/09/15 08:47:34;;;;;;;12.48;8.93;;;;;;;29.00;65.27;95010.63;4992604;28;20022;-93
2023/09/15 08:50:01;;;;;;;13.55;8.75;;;;;;;29.18;65.34;95004.53;4984158;28;20049;-95
2023/09/15 08:52:27;;;;;;;11.38;8.70;;;;;;;29.11;64.84;95004.09;4990001;28;20093;-94
2023/09/15 08:54:52;;;;;;;13.85;8.60;;;;;;;29.29;62.57;94998.00;4978915;28;20429;-93
2023/09/15 08:57:19;;;;;;;13.98;8.35;;;;;;;29.33;60.59;95000.91;4982496;28;20125;-92
2023/09/15 08:59:44;;;;;;;10.15;8.00;;;;;;;29.67;61.16;94996.16;4968973;28;20085;-90
2023/09/15 09:02:12;;;;;;;13.07;8.00;;;;;;;29.62;58.26;95001.59;4987313;28;20046;-91
2023/09/15 09:04:38;;;;;;;11.10;8.00;;;;;;;29.44;59.79;94989.03;4986870;28;20035;-93
2023/09/15 09:07:05;;;;;;;14.45;8.73;;;;;;;29.73;57.82;94986.22;4993742;28;20038;-94
2023/09/15 09:09:31;;;;;;;9.57;7.35;;;;;;;28.02;62.09;94988.84;4977286;28;20374;-96
2023/09/15 09:11:57;;;;;;;13.80;8.57;;;;;;;29.61;60.85;94983.16;4971191;28;20033;-93
2023/09/15 09:14:22;;;;;;;13.25;8.23;;;;;;;29.79;60.02;94980.50;4986957;28;20047;-96
2023/09/15 09:16:48;;;;;;;12.70;8.60;;;;;;;29.77;59.68;94982.66;4989389;28;20037;-85
2023/09/15 09:19:14;;;;;;;10.10;8.13;;;;;;;30.02;57.56;94975.38;4984853;28;20118;-89
2023/09/15 09:21:39;;;;;;;8.10;7.30;;;;;;;28.83;60.32;94986.28;4986949;28;20034;-94
2023/09/15 09:24:06;;;;;;;14.65;8.23;;;;;;;29.74;59.22;94979.78;4990352;28;20022;-95
2023/09/15 09:26:32;;;;;;;12.88;7.60;;;;;;;30.24;57.34;94980.91;4990395;28;20068;-93
2023/09/15 09:28:57;;;;;;;11.85;7.97;;;;;;;29.93;57.66;94980.56;4994629;28;20101;-95
2023/09/15 09:31:25;;;;;;;12.88;8.32;;;;;;;29.76;59.31;94980.28;4997798;28;20034;-94
2023/09/15 09:33:51;;;;;;;9.73;7.67;;;;;;;28.17;59.56;94976.22;4998203;28;20030;-96
2023/09/15 09:36:17;;;;;;;12.50;8.05;;;;;;;29.91;56.24;94968.59;5005831;28;20293;-96
2023/09/15 09:38:44;;;;;;;9.35;7.90;;;;;;;30.14;54.77;94967.69;4980676;28;20022;-96
2023/09/15 09:41:11;;;;;;;18.13;9.00;;;;;;;30.10;54.79;94966.69;5002321;28;20010;-96
2023/09/15 09:43:38;;;;;;;13.35;7.68;;;;;;;30.51;54.26;94964.91;4993711;28;20104;-94
2023/09/15 09:46:08;;;;;;;10.50;7.18;;;;;;;30.29;52.57;94967.44;4971617;28;20026;-93
2023/09/15 09:48:37;;;;;;;11.07;7.30;;;;;;;30.50;53.55;94966.03;4994677;28;20034;-91
2023/09/15 09:51:04;;;;;;;11.50;8.43;;;;;;;29.20;53.88;94966.88;4996482;28;20030;-96
2023/09/15 09:53:35;;;;;;;12.23;8.65;;;;;;;29.24;54.46;94965.22;4995361;28;20030;-96
2023/09/15 09:56:01;;;;;;;11.27;7.40;;;;;;;30.51;52.97;94964.13;5109310;23;20062;-94
2023/09/15 09:58:27;;;;;;;11.35;8.02;;;;;;;30.74;52.80;94963.97;4951959;28;20034;-90
2023/09/15 10:00:53;;;;;;;9.13;7.75;;;;;;;30.58;54.50;94968.00;4969862;28;20039;-91
2023/09/15 10:03:21;;;;;;;9.63;8.60;;;;;;;30.56;54.72;94958.69;4938734;29;20038;-94
2023/09/15 10:05:47;;;;;;;11.32;8.20;;;;;;;30.93;53.15;94960.38;4940079;29;20027;-95
2023/09/15 10:08:14;;;;;;;12.35;7.32;;;;;;;30.88;54.28;94955.94;4942467;29;20028;-90
2023/09/15 10:10:43;;;;;;;9.25;7.68;;;;;;;29.86;54.63;94949.97;4955948;29;20043;-92
2023/09/15 10:13:10;;;;;;;10.93;8.70;;;;;;;30.29;55.42;94954.06;4949885;29;20440;-91
2023/09/15 10:15:35;;;;;;;9.77;8.57;;;;;;;29.51;55.25;94946.72;4965153;28;20034;-94
2023/09/15 10:18:02;;;;;;;13.50;8.77;;;;;;;30.02;55.41;94943.31;4950245;29;20854;-93
2023/09/15 10:20:27;;;;;;;8.75;8.00;;;;;;;30.34;54.33;94943.28;4969104;28;20102;-92
2023/09/15 10:22:54;;;;;;;13.98;7.95;;;;;;;30.01;53.22;94941.72;4954450;29;20111;-96
2023/09/15 10:25:21;;;;;;;11.60;7.63;;;;;;;29.89;54.02;94950.19;4952658;29;20023;-94
2023/09/15 10:27:46;;;;;;;8.70;7.90;;;;;;;29.38;55.99;94947.44;4952545;28;20053;-93
2023/09/15 10:30:12;;;;;;;12.60;8.30;;;;;;;29.25;56.67;94942.84;4937948;29;20055;-87
2023/09/15 10:32:39;;;;;;;11.60;8.63;;;;;;;29.31;58.09;94947.03;4967360;28;20031;-96
2023/09/15 10:35:09;;;;;;;10.60;8.25;;;;;;;29.25;59.42;94945.50;4951477;28;20031;-95
2023/09/15 10:37:40;;;;;;;13.63;8.85;;;;;;;29.45;60.18;94934.53;4951540;28;20071;-93
2023/09/15 10:40:07;;;;;;;9.75;8.70;;;;;;;29.55;57.16;94936.25;4937546;29;20082;-89
2023/09/15 10:42:33;;;;;;;12.15;8.60;;;;;;;29.39;55.87;94937.56;4941286;29;20052;-96
2023/09/15 10:45:09;;;;;;;12.20;8.57;;;;;;;30.01;56.26;94936.38;4950608;29;20039;-91
2023/09/15 10:47:34;;;;;;;12.73;8.82;;;;;;;29.94;54.86;94935.94;4940284;29;20114;-95
2023/09/15 10:50:01;;;;;;;14.90;8.55;;;;;;;29.48;54.39;94933.16;4949421;29;20313;-95
2023/09/15 10:52:37;;;;;;;10.60;8.20;;;;;;;29.33;56.73;94930.69;4950362;29;20493;-90
2023/09/15 10:55:03;;;;;;;9.32;8.10;;;;;;;29.45;55.43;94931.06;4932585;29;20028;-91
2023/09/15 10:57:33;;;;;;;9.65;8.07;;;;;;;29.83;54.61;94923.84;4943674;29;20050;-89
2023/09/15 10:59:59;;;;;;;12.30;8.50;;;;;;;29.46;54.88;94925.44;4937351;29;20035;-91
2023/09/15 11:02:25;;;;;;;13.57;8.05;;;;;;;29.84;55.00;94917.41;4945085;29;20030;-92
2023/09/15 11:04:51;;;;;;;10.30;8.10;;;;;;;29.60;53.73;94920.16;4945103;29;20054;-88
2023/09/15 11:07:16;;;;;;;11.98;8.20;;;;;;;29.36;55.12;94908.75;4945018;29;20032;-90
2023/09/15 11:09:42;;;;;;;14.10;8.27;;;;;;;29.50;54.87;94910.44;4937880;29;20031;-90
2023/09/15 11:12:08;;;;;;;12.98;8.23;;;;;;;30.44;54.58;94911.03;4942378;29;20400;-88
2023/09/15 11:14:33;;;;;;;12.98;7.70;;;;;;;30.42;52.82;94907.84;4956224;28;20119;-93